Time,TemperatureF,DewpointF,PressureIn,WindDirection,WindDirectionDegrees,WindSpeedMPH,WindSpeedGustMPH,Humidity,HourlyPrecipIn,Conditions,Clouds,dailyrainin,SolarRadiationWatts/m^2,SoftwareType,DateUTC
2013-03-03 00:01:00,35.0,30.0,30.05,NNW,329,2.0,3.0,81,-99.99,,,-99.99,-0.100000,,2013-03-03 07:01:00,
2013-03-03 00:11:00,36.0,30.0,30.04,WNW,294,2.0,4.0,78,-99.99,,,-99.99,-0.100000,,2013-03-03 07:11:00,
2013-03-03 00:21:00,39.0,30.0,30.03,South,190,12.0,21.0,68,-99.99,,,-99.99,-0.200000,,2013-03-03 07:21:00,
2013-03-03 00:31:00,42.0,30.0,30.03,SSW,201,14.0,21.0,62,-99.99,,,-99.99,-0.100000,,2013-03-03 07:31:00,
2013-03-03 00:42:00,42.0,30.0,30.03,SSW,208,15.0,22.0,61,-99.99,,,-99.99,-0.100000,,2013-03-03 07:42:00,
2013-03-03 00:51:00,42.0,30.0,30.02,SSW,193,14.0,25.0,60,-99.99,,,-99.99,0.000000,,2013-03-03 07:51:00,
2013-03-03 01:01:00,42.0,30.0,30.01,South,184,14.0,23.0,60,-99.99,,,-99.99,0.000000,,2013-03-03 08:01:00,
2013-03-03 01:11:00,40.0,30.0,30.01,WSW,248,3.0,5.0,67,-99.99,,,-99.99,0.000000,,2013-03-03 08:11:00,
2013-03-03 01:21:00,36.0,29.0,30.01,NW,313,5.0,6.0,77,-99.99,,,-99.99,0.000000,,2013-03-03 08:21:00,
2013-03-03 01:31:00,34.0,29.0,30.01,NW,324,5.0,6.0,81,-99.99,,,-99.99,-0.200000,,2013-03-03 08:31:00,
2013-03-03 01:41:00,34.0,29.0,30.01,NW,315,3.0,4.0,82,-99.99,,,-99.99,0.100000,,2013-03-03 08:41:00,
2013-03-03 01:53:00,34.0,29.0,30.01,NW,313,5.0,6.0,82,-99.99,,,-99.99,0.000000,,2013-03-03 08:53:00,
2013-03-03 02:01:00,35.0,30.0,30.01,NW,317,6.0,8.0,81,-99.99,,,-99.99,-0.100000,,2013-03-03 09:01:00,
2013-03-03 02:11:00,34.0,29.0,30.00,NW,318,4.0,7.0,82,-99.99,,,-99.99,0.000000,,2013-03-03 09:11:00,
2013-03-03 02:21:00,34.0,29.0,30.00,SSE,163,2.0,3.0,83,-99.99,,,-99.99,-0.100000,,2013-03-03 09:21:00,
2013-03-03 02:31:00,34.0,30.0,29.99,South,186,2.0,3.0,83,-99.99,,,-99.99,-0.100000,,2013-03-03 09:31:00,
2013-03-03 02:41:00,34.0,30.0,30.00,West,272,4.0,5.0,82,-99.99,,,-99.99,-0.100000,,2013-03-03 09:41:00,
2013-03-03 02:51:00,35.0,30.0,30.00,WNW,296,4.0,7.0,81,-99.99,,,-99.99,0.200000,,2013-03-03 09:51:00,
2013-03-03 03:01:00,35.0,30.0,30.00,WNW,292,4.0,6.0,81,-99.99,,,-99.99,0.000000,,2013-03-03 10:01:00,
2013-03-03 03:11:00,35.0,30.0,30.00,WNW,287,5.0,7.0,80,-99.99,,,-99.99,-0.100000,,2013-03-03 10:11:00,
2013-03-03 03:21:00,36.0,30.0,29.99,SSE,165,3.0,6.0,81,-99.99,,,-99.99,0.000000,,2013-03-03 10:21:00,
2013-03-03 03:31:00,34.0,30.0,29.98,SSE,150,7.0,10.0,86,-99.99,,,-99.99,-0.100000,,2013-03-03 10:31:00,
2013-03-03 03:41:00,34.0,31.0,29.97,SSE,153,8.0,10.0,87,-99.99,,,-99.99,0.100000,,2013-03-03 10:41:00,
2013-03-03 03:51:00,35.0,31.0,29.97,SSE,148,6.0,7.0,85,-99.99,,,-99.99,0.100000,,2013-03-03 10:51:00,
2013-03-03 04:01:00,35.0,31.0,29.96,SSE,156,7.0,10.0,84,-99.99,,,-99.99,-0.100000,,2013-03-03 11:01:00,
2013-03-03 04:11:00,37.0,31.0,29.95,South,185,9.0,11.0,79,-99.99,,,-99.99,-0.100000,,2013-03-03 11:11:00,
2013-03-03 04:21:00,40.0,32.0,29.94,South,187,10.0,14.0,70,-99.99,,,-99.99,-0.200000,,2013-03-03 11:21:00,
2013-03-03 04:31:00,40.0,31.0,29.93,South,172,12.0,18.0,69,-99.99,,,-99.99,-0.200000,,2013-03-03 11:31:00,
2013-03-03 04:41:00,40.0,32.0,29.93,South,176,12.0,17.0,71,-99.99,,,-99.99,0.000000,,2013-03-03 11:41:00,
2013-03-03 04:52:00,40.0,32.0,29.93,South,173,12.0,17.0,71,-99.99,,,-99.99,-0.200000,,2013-03-03 11:52:00,
2013-03-03 05:01:00,40.0,32.0,29.93,South,175,12.0,16.0,71,-99.99,,,-99.99,0.000000,,2013-03-03 12:01:00,
2013-03-03 05:11:00,41.0,32.0,29.93,South,179,12.0,16.0,70,-99.99,,,-99.99,-0.100000,,2013-03-03 12:11:00,
2013-03-03 05:21:00,42.0,32.0,29.93,South,183,12.0,17.0,67,-99.99,,,-99.99,0.000000,,2013-03-03 12:21:00,
2013-03-03 05:31:00,42.0,32.0,29.93,South,186,11.0,16.0,67,-99.99,,,-99.99,0.000000,,2013-03-03 12:31:00,
2013-03-03 05:42:00,41.0,32.0,29.93,SSW,193,5.0,8.0,70,-99.99,,,-99.99,0.000000,,2013-03-03 12:42:00,
2013-03-03 05:52:00,41.0,32.0,29.93,WSW,250,5.0,9.0,68,-99.99,,,-99.99,-0.100000,,2013-03-03 12:52:00,
2013-03-03 06:01:00,40.0,32.0,29.94,WSW,250,6.0,9.0,71,-99.99,,,-99.99,-0.100000,,2013-03-03 13:01:00,
2013-03-03 06:11:00,39.0,32.0,29.93,SW,226,5.0,8.0,73,-99.99,,,-99.99,0.000000,,2013-03-03 13:11:00,
2013-03-03 06:21:00,40.0,32.0,29.93,SSW,193,8.0,13.0,71,-99.99,,,-99.99,-0.100000,,2013-03-03 13:21:00,
2013-03-03 06:31:00,42.0,32.0,29.92,SSW,197,11.0,17.0,66,-99.99,,,-99.99,0.000000,,2013-03-03 13:31:00,
2013-03-03 06:41:00,43.0,32.0,29.92,SSW,200,11.0,17.0,64,-99.99,,,-99.99,0.000000,,2013-03-03 13:41:00,
2013-03-03 06:51:00,43.0,32.0,29.92,SSW,198,11.0,17.0,63,-99.99,,,-99.99,-0.100000,,2013-03-03 13:51:00,
2013-03-03 07:01:00,43.0,31.0,29.91,SSW,196,14.0,18.0,62,-99.99,,,-99.99,0.100000,,2013-03-03 14:01:00,
2013-03-03 07:11:00,43.0,31.0,29.91,SSW,201,15.0,21.0,62,-99.99,,,-99.99,0.300000,,2013-03-03 14:11:00,
2013-03-03 07:21:00,43.0,31.0,29.91,SSW,202,14.0,24.0,63,-99.99,,,-99.99,1.200000,,2013-03-03 14:21:00,
2013-03-03 07:31:00,43.0,31.0,29.92,SW,216,12.0,20.0,64,-99.99,,,-99.99,4.100000,,2013-03-03 14:31:00,
2013-03-03 07:42:00,39.0,31.0,29.91,West,281,7.0,11.0,72,-99.99,,,-99.99,14.300000,,2013-03-03 14:42:00,
2013-03-03 07:52:00,40.0,31.0,29.92,SW,231,13.0,22.0,70,-99.99,,,-99.99,20.600000,,2013-03-03 14:52:00,
2013-03-03 08:01:00,41.0,32.0,29.92,WSW,237,11.0,19.0,70,-99.99,,,-99.99,30.100000,,2013-03-03 15:01:00,
2013-03-03 08:11:00,40.0,32.0,29.91,SW,222,10.0,15.0,72,-99.99,,,-99.99,39.000000,,2013-03-03 15:11:00,
2013-03-03 08:21:00,40.0,32.0,29.91,SW,222,10.0,15.0,72,-99.99,,,-99.99,33.900002,,2013-03-03 15:21:00,
2013-03-03 08:31:00,40.0,32.0,29.91,SW,216,13.0,18.0,72,-99.99,,,-99.99,46.500000,,2013-03-03 15:31:00,
2013-03-03 08:41:00,40.0,32.0,29.91,SW,216,13.0,19.0,72,-99.99,,,-99.99,42.700001,,2013-03-03 15:41:00,
2013-03-03 08:51:00,40.0,32.0,29.92,SSW,212,13.0,20.0,74,-99.99,,,-99.99,39.500000,,2013-03-03 15:51:00,
2013-03-03 09:01:00,40.0,33.0,29.91,SSW,207,16.0,24.0,76,-99.99,,,-99.99,55.799999,,2013-03-03 16:01:00,
2013-03-03 09:11:00,39.0,33.0,29.91,SSW,205,15.0,24.0,78,-99.99,,,-99.99,52.700001,,2013-03-03 16:11:00,
2013-03-03 09:21:00,39.0,34.0,29.91,SSW,205,15.0,22.0,79,-99.99,,,-99.99,44.400002,,2013-03-03 16:21:00,
2013-03-03 09:31:00,39.0,34.0,29.91,SW,215,17.0,26.0,81,-99.99,,,-99.99,70.599998,,2013-03-03 16:31:00,
2013-03-03 09:41:00,39.0,34.0,29.91,SSW,204,16.0,22.0,82,-99.99,,,-99.99,129.500000,,2013-03-03 16:41:00,
2013-03-03 09:51:00,39.0,35.0,29.90,SSW,201,17.0,26.0,83,-99.99,,,-99.99,205.100006,,2013-03-03 16:51:00,
2013-03-03 10:01:00,40.0,35.0,29.90,SSW,202,18.0,26.0,83,-99.99,,,-99.99,272.600006,,2013-03-03 17:01:00,
2013-03-03 10:11:00,40.0,36.0,29.89,SSW,203,17.0,27.0,83,-99.99,,,-99.99,306.100006,,2013-03-03 17:11:00,
2013-03-03 10:21:00,40.0,36.0,29.87,SSW,201,20.0,27.0,83,-99.99,,,-99.99,365.399994,,2013-03-03 17:21:00,
2013-03-03 10:32:00,41.0,36.0,29.88,SSW,213,16.0,25.0,83,-99.99,,,-99.99,286.399994,,2013-03-03 17:32:00,
2013-03-03 10:41:00,40.0,36.0,29.89,SSW,213,17.0,25.0,83,-99.99,,,-99.99,207.699997,,2013-03-03 17:41:00,
2013-03-03 10:52:00,40.0,36.0,29.90,SW,216,18.0,23.0,83,-99.99,,,-99.99,111.199997,,2013-03-03 17:52:00,
2013-03-03 11:01:00,40.0,35.0,29.89,SSW,211,18.0,27.0,84,-99.99,,,-99.99,113.500000,,2013-03-03 18:01:00,
2013-03-03 11:11:00,40.0,35.0,29.89,SW,218,18.0,26.0,84,-99.99,,,-99.99,62.500000,,2013-03-03 18:11:00,
2013-03-03 11:21:00,40.0,35.0,29.89,SW,218,17.0,27.0,83,-99.99,,,-99.99,120.099998,,2013-03-03 18:21:00,
2013-03-03 11:31:00,40.0,35.0,29.89,SW,217,19.0,27.0,83,-99.99,,,-99.99,157.300003,,2013-03-03 18:31:00,
2013-03-03 11:41:00,40.0,35.0,29.88,SSW,213,22.0,31.0,82,-99.99,,,-99.99,214.899994,,2013-03-03 18:41:00,
2013-03-03 11:52:00,40.0,35.0,29.88,SW,215,22.0,30.0,82,-99.99,,,-99.99,206.699997,,2013-03-03 18:52:00,
2013-03-03 12:01:00,40.0,35.0,29.88,SW,218,17.0,26.0,82,-99.99,,,-99.99,145.399994,,2013-03-03 19:01:00,
2013-03-03 12:11:00,40.0,35.0,29.88,SW,218,17.0,26.0,82,-99.99,,,-99.99,95.599998,,2013-03-03 19:11:00,
2013-03-03 12:21:00,40.0,35.0,29.87,SSW,210,15.0,24.0,82,-99.99,,,-99.99,179.899994,,2013-03-03 19:21:00,
2013-03-03 12:31:00,40.0,35.0,29.87,SW,215,15.0,23.0,80,-99.99,,,-99.99,208.600006,,2013-03-03 19:31:00,
2013-03-03 12:42:00,41.0,35.0,29.85,SSW,212,18.0,26.0,78,-99.99,,,-99.99,290.700012,,2013-03-03 19:42:00,
2013-03-03 12:51:00,41.0,35.0,29.85,SSW,211,18.0,29.0,78,-99.99,,,-99.99,243.399994,,2013-03-03 19:51:00,
2013-03-03 13:01:00,41.0,35.0,29.85,SSW,212,18.0,26.0,78,-99.99,,,-99.99,227.600006,,2013-03-03 20:01:00,
2013-03-03 13:11:00,40.0,34.0,29.86,SW,215,18.0,26.0,78,-99.99,,,-99.99,188.399994,,2013-03-03 20:11:00,
2013-03-03 13:21:00,41.0,34.0,29.86,SW,225,18.0,28.0,77,-99.99,,,-99.99,189.600006,,2013-03-03 20:21:00,
2013-03-03 13:32:00,41.0,34.0,29.85,SSW,213,18.0,25.0,77,-99.99,,,-99.99,251.000000,,2013-03-03 20:32:00,
2013-03-03 13:42:00,42.0,35.0,29.85,SW,214,17.0,29.0,77,-99.99,,,-99.99,493.700012,,2013-03-03 20:42:00,
2013-03-03 13:52:00,43.0,35.0,29.84,SW,214,19.0,31.0,74,-99.99,,,-99.99,665.700012,,2013-03-03 20:52:00,
2013-03-03 14:01:00,43.0,35.0,29.84,SSW,207,20.0,27.0,72,-99.99,,,-99.99,362.299988,,2013-03-03 21:01:00,
2013-03-03 14:11:00,43.0,34.0,29.83,SSW,210,20.0,27.0,70,-99.99,,,-99.99,404.399994,,2013-03-03 21:11:00,
2013-03-03 14:21:00,43.0,34.0,29.82,SSW,208,23.0,32.0,69,-99.99,,,-99.99,369.100006,,2013-03-03 21:21:00,
2013-03-03 14:31:00,43.0,34.0,29.83,SW,217,22.0,32.0,70,-99.99,,,-99.99,329.100006,,2013-03-03 21:31:00,
2013-03-03 14:41:00,43.0,34.0,29.82,SW,217,20.0,33.0,69,-99.99,,,-99.99,336.899994,,2013-03-03 21:41:00,
2013-03-03 14:51:00,44.0,33.0,29.81,SW,221,21.0,34.0,65,-99.99,,,-99.99,437.399994,,2013-03-03 21:51:00,
2013-03-03 15:01:00,44.0,33.0,29.81,SW,217,22.0,33.0,65,-99.99,,,-99.99,501.299988,,2013-03-03 22:01:00,
2013-03-03 15:11:00,44.0,33.0,29.81,SW,214,20.0,30.0,64,-99.99,,,-99.99,393.600006,,2013-03-03 22:11:00,
2013-03-03 15:21:00,44.0,33.0,29.82,SSW,209,23.0,35.0,65,-99.99,,,-99.99,417.600006,,2013-03-03 22:21:00,
2013-03-03 15:31:00,43.0,33.0,29.81,SSW,208,21.0,32.0,65,-99.99,,,-99.99,393.799988,,2013-03-03 22:31:00,
2013-03-03 15:41:00,43.0,32.0,29.82,SSW,211,21.0,33.0,64,-99.99,,,-99.99,278.799988,,2013-03-03 22:41:00,
2013-03-03 15:52:00,43.0,32.0,29.81,SSW,212,17.0,30.0,63,-99.99,,,-99.99,311.899994,,2013-03-03 22:52:00,
2013-03-03 16:01:00,44.0,31.0,29.81,SW,216,20.0,35.0,61,-99.99,,,-99.99,433.000000,,2013-03-03 23:01:00,
2013-03-03 16:11:00,44.0,31.0,29.81,SSW,212,20.0,31.0,59,-99.99,,,-99.99,464.600006,,2013-03-03 23:11:00,
2013-03-03 16:21:00,44.0,28.0,29.81,SW,217,21.0,33.0,54,-99.99,,,-99.99,369.299988,,2013-03-03 23:21:00,
2013-03-03 16:31:00,43.0,28.0,29.81,SW,222,18.0,30.0,53,-99.99,,,-99.99,365.399994,,2013-03-03 23:31:00,
2013-03-03 16:41:00,43.0,27.0,29.80,SW,217,24.0,36.0,52,-99.99,,,-99.99,335.899994,,2013-03-03 23:41:00,
2013-03-03 16:52:00,43.0,27.0,29.80,SW,222,21.0,33.0,53,-99.99,,,-99.99,320.299988,,2013-03-03 23:52:00,
2013-03-03 17:01:00,43.0,27.0,29.80,SW,224,20.0,29.0,53,-99.99,,,-99.99,295.600006,,2013-03-04 00:01:00,
2013-03-03 17:11:00,42.0,27.0,29.80,SW,223,24.0,38.0,53,-99.99,,,-99.99,254.100006,,2013-03-04 00:11:00,
2013-03-03 17:21:00,42.0,26.0,29.80,SW,223,21.0,37.0,52,-99.99,,,-99.99,236.300003,,2013-03-04 00:21:00,
2013-03-03 17:32:00,41.0,26.0,29.80,SW,221,21.0,36.0,54,-99.99,,,-99.99,185.300003,,2013-03-04 00:32:00,
2013-03-03 17:41:00,41.0,26.0,29.81,SW,222,22.0,33.0,54,-99.99,,,-99.99,154.300003,,2013-03-04 00:41:00,
2013-03-03 17:51:00,40.0,26.0,29.82,SW,224,15.0,25.0,55,-99.99,,,-99.99,122.900002,,2013-03-04 00:51:00,
2013-03-03 18:01:00,40.0,26.0,29.83,SW,226,15.0,23.0,57,-99.99,,,-99.99,86.300003,,2013-03-04 01:01:00,
2013-03-03 18:11:00,39.0,26.0,29.85,SW,221,11.0,18.0,57,-99.99,,,-99.99,50.700001,,2013-03-04 01:11:00,
2013-03-03 18:21:00,39.0,25.0,29.85,SW,224,12.0,19.0,57,-99.99,,,-99.99,22.500000,,2013-03-04 01:21:00,
2013-03-03 18:31:00,38.0,24.0,29.85,SW,226,17.0,26.0,56,-99.99,,,-99.99,12.700000,,2013-03-04 01:31:00,
2013-03-03 18:41:00,38.0,23.0,29.86,SW,227,20.0,28.0,54,-99.99,,,-99.99,4.700000,,2013-03-04 01:41:00,
2013-03-03 18:51:00,38.0,23.0,29.87,SW,226,18.0,28.0,56,-99.99,,,-99.99,1.000000,,2013-03-04 01:51:00,
2013-03-03 19:01:00,37.0,24.0,29.88,SSW,213,15.0,22.0,59,-99.99,,,-99.99,0.000000,,2013-03-04 02:01:00,
2013-03-03 19:11:00,36.0,24.0,29.88,SSW,213,14.0,21.0,59,-99.99,,,-99.99,0.000000,,2013-03-04 02:11:00,
2013-03-03 19:22:00,35.0,24.0,29.89,SSW,210,14.0,23.0,61,-99.99,,,-99.99,-0.100000,,2013-03-04 02:22:00,
2013-03-03 19:31:00,35.0,24.0,29.89,SSW,205,13.0,20.0,62,-99.99,,,-99.99,-0.100000,,2013-03-04 02:31:00,
2013-03-03 19:41:00,35.0,23.0,29.90,SW,215,15.0,20.0,60,-99.99,,,-99.99,0.000000,,2013-03-04 02:41:00,
2013-03-03 19:52:00,35.0,22.0,29.90,SW,218,15.0,22.0,59,-99.99,,,-99.99,-0.100000,,2013-03-04 02:52:00,
2013-03-03 20:01:00,35.0,22.0,29.90,SW,218,14.0,21.0,58,-99.99,,,-99.99,0.000000,,2013-03-04 03:01:00,
2013-03-03 20:11:00,35.0,20.0,29.91,SW,227,14.0,21.0,54,-99.99,,,-99.99,0.000000,,2013-03-04 03:11:00,
2013-03-03 20:21:00,35.0,20.0,29.91,SW,228,13.0,19.0,55,-99.99,,,-99.99,-0.100000,,2013-03-04 03:21:00,
2013-03-03 20:31:00,34.0,21.0,29.92,SW,232,11.0,17.0,56,-99.99,,,-99.99,-0.100000,,2013-03-04 03:31:00,
2013-03-03 20:41:00,34.0,20.0,29.92,SW,231,11.0,18.0,56,-99.99,,,-99.99,-0.100000,,2013-03-04 03:41:00,
2013-03-03 20:52:00,33.0,20.0,29.93,SW,220,11.0,16.0,58,-99.99,,,-99.99,0.000000,,2013-03-04 03:52:00,
2013-03-03 21:01:00,33.0,20.0,29.93,SW,222,11.0,17.0,58,-99.99,,,-99.99,-0.100000,,2013-03-04 04:01:00,
2013-03-03 21:11:00,33.0,21.0,29.94,West,278,7.0,11.0,60,-99.99,,,-99.99,0.000000,,2013-03-04 04:11:00,
2013-03-03 21:21:00,32.0,20.0,29.95,North,352,8.0,12.0,61,-99.99,,,-99.99,-0.100000,,2013-03-04 04:21:00,
2013-03-03 21:31:00,33.0,21.0,29.95,WSW,258,4.0,5.0,60,-99.99,,,-99.99,-0.100000,,2013-03-04 04:31:00,
2013-03-03 21:41:00,32.0,21.0,29.96,West,272,3.0,5.0,63,-99.99,,,-99.99,-0.100000,,2013-03-04 04:41:00,
2013-03-03 21:51:00,32.0,21.0,29.96,NNE,16,4.0,6.0,62,-99.99,,,-99.99,-0.100000,,2013-03-04 04:51:00,
2013-03-03 22:01:00,31.0,21.0,29.96,NE,36,6.0,9.0,65,-99.99,,,-99.99,-0.100000,,2013-03-04 05:01:00,
2013-03-03 22:11:00,31.0,22.0,29.96,NE,35,8.0,11.0,68,-99.99,,,-99.99,-0.100000,,2013-03-04 05:11:00,
2013-03-03 22:22:00,31.0,24.0,29.96,NE,54,10.0,13.0,74,-99.99,,,-99.99,-0.100000,,2013-03-04 05:22:00,
2013-03-03 22:31:00,30.0,24.0,29.97,ENE,65,11.0,13.0,78,-99.99,,,-99.99,-0.100000,,2013-03-04 05:31:00,
2013-03-03 22:42:00,29.0,24.0,29.97,ENE,60,8.0,11.0,78,-99.99,,,-99.99,-0.100000,,2013-03-04 05:42:00,
2013-03-03 22:52:00,29.0,24.0,29.97,ENE,73,8.0,10.0,79,-99.99,,,-99.99,0.000000,,2013-03-04 05:52:00,
2013-03-03 23:01:00,29.0,24.0,29.97,East,89,7.0,9.0,79,-99.99,,,-99.99,0.000000,,2013-03-04 06:01:00,
2013-03-03 23:21:00,29.0,23.0,29.97,ESE,107,8.0,11.0,76,-99.99,,,-99.99,0.000000,,2013-03-04 06:21:00,
2013-03-03 23:31:00,29.0,23.0,29.97,SE,125,8.0,9.0,75,-99.99,,,-99.99,-0.100000,,2013-03-04 06:31:00,
2013-03-03 23:42:00,30.0,22.0,29.97,ESE,114,9.0,11.0,71,-99.99,,,-99.99,-0.100000,,2013-03-04 06:42:00,
2013-03-03 23:51:00,30.0,22.0,29.97,ESE,108,6.0,8.0,70,-99.99,,,-99.99,-0.100000,,2013-03-04 06:51:00,